Airfield :
LOGIN :

Register | Disclaimer

   EN    FR    IT 

 










Legend :    VFR   Marginal VFR   IFR   Intensive IFR   Very Intensive IFR
Visi :
Ceiling :
>= 8 km
>= 3000ft
5 to 8 km
1000 to 3000 ft
1500m to 5 km
500 to 1000 ft
800 to 1500m
200 to 500 ft
< 800m
< 200 ft
Symbols :   Thunderstorms  Fog  Heavy snow  Heavy precipitations  Wind > 20 kt
SIGMETs :     Misc.  Thunderstorms  Icing  Turbulence  Mountain Waves  Volcanic Ashes






- Airport Elevation : 2026 ft
- IATA code : TOJ


LETO - Madrid Torrejon

CURRENT METAR :
  • 102300Z 01004KT 2500 BR NSC 01/01 Q1026 NOSIG

EXPIRED METARs :
  • 102200Z 35003KT 3500 BR NSC 02/02 Q1026 NOSIG
  • 102100Z 00000KT 3500 BR NSC 03/03 Q1026 NOSIG

TAF TAF LETO
Valid from the 11 at 00:00 until the 12 at 00:00 UTC


102302Z 1100/1124 VRB05KT 6000 NSC TX09/1115Z TN00/1106Z
TEMPO 1100/1110 3000 BR
PROB40
TEMPO 1104/1109 0100 FG VV001
PROB30
TEMPO 1109/1112 2000 RA BR BKN014



MET'MAP, your aeronautical weather chart ! - Copyright ORBIFLY December 2007 - Disclaimer

ORBIFLY MET'MAP TEAM :

Programming & Development : Alexandra Zaïnal
Concept & original design : Baudouin d'Aumeries
Assistance for programming : Marc-Olivier Méhu
Technical & hardware support : Manuel Goepfert

Contact : metmap@orbifly.com




SOURCES & CREDITS :

   NOAA